Lilly, PA (15938)

08:41 AM EDT del 24 Ottobre 2014 (GMT -0400)
Portage Boro | Change Station
CLOSE
Current Station
Stazione meteo personale
Location: Portage, PA
Altitudine: 1690 ft
Stazioni meteo nelle vicinanze

Alt. 1690 ft 40.39 °N, 78.67 °W | Updated 13 seconds ago

Coperto
Coperto
46.0 °F
Sembra 46 °F
N
2.9
Vento Variabile Vento da NO
Gusts 4.9 mph

Oggi
Massima -- | Minima -- °F
--% Possibilità di precip.
Ieri
Massima -- | Minima -- °F
Precip. -- in
7:35 AM 6:21 PM
Luna nuova, 0% visible
Pressione 30.05 in
Visibilità 9.0 miglia
Nuvole Nubi sparse 600 ft
Raffreddamento del vento 46 °F
Punto di rugiada 41 °F
Umidità 83%
Piovosità 0.00 in
Spessore del manto nevoso Non disponibile.
Raggi UV 0 fuori da 12
Polline 1.20 fuori da 12
Qualità dell'aria Non disponibile.
Flu Activity Sporadic
SPECI KJST 241235Z AUTO 31008KT 9SM SCT006 06/04 A3005 RMK AO2 T00610039

More Conditions Fewer Conditions

Pressione 30.05 in
Visibilità 9.0 miglia
Nuvole Nubi sparse 600 ft
Raffreddamento del vento 46 °F
Punto di rugiada 41 °F
Umidità 83%
Piovosità 0.00 in
Spessore del manto nevoso Non disponibile.
Raggi UV 0 fuori da 12
Polline 1.20 fuori da 12
Qualità dell'aria Non disponibile.
Flu Activity Sporadic
SPECI KJST 241235Z AUTO 31008KT 9SM SCT006 06/04 A3005 RMK AO2 T00610039

More Conditions Fewer Conditions

10-Day Weather Forecast

Almanac

Astronomia

Oct. 24, 2014 Alba Tramonto
Ora attuale 07:35 EDT 18:21 EDT
Crepuscolo civile 07:07 EDT 18:49 EDT
Crepuscolo nautico 06:35 EDT 19:21 EDT
Crepuscolo astronomico 06:03 EDT 19:52 EDT
Luna 08:12 EDT 19:00 EDT
Estensione della luce visibile 11h 42m
Lunghezza del giorno
10h 46m
Tomorrow will be 2m 28s shorter.
Luna nuova, 0% of the Moon is Illuminated
Oggi
Luna nuova
Ott 30
Primo quarto
Nov 6
Luna piena
Nov 14
Ultimo quarto
Nov 22
Nuovo

Gli estremi di oggi

State Highs State Lows

Community

WunderPhotos

Upload Photos

1,764,544 foto caricate!

Nearby

Profondità neve

Stazione Profondità Altitudine
Non sono state evidenziate nuove nevicate

Attività sismica

Città  Distanza Mag. Data & Ora
Non sono state riportate attività sismiche nelle vicinanze.
Minimo Magnitudo Mostrato è 2.5.

Temperature delle acque costiere

Località Temperatura
Nessun dato dalle stazioni

Stazioni meteo nelle vicinanze